sensor_id;sensor_type;location;lat;lon;timestamp;P1;durP1;ratioP1;P2;durP2;ratioP2
75096;SDS011;63684;47.964;11.186;2023-07-13T00:02:14;2.85;;;2.20;;
75096;SDS011;63684;47.964;11.186;2023-07-13T00:04:40;4.93;;;2.67;;
75096;SDS011;63684;47.964;11.186;2023-07-13T00:07:06;3.13;;;2.40;;
75096;SDS011;63684;47.964;11.186;2023-07-13T00:09:32;6.22;;;2.80;;
75096;SDS011;63684;47.964;11.186;2023-07-13T00:11:58;2.50;;;2.30;;
75096;SDS011;63684;47.964;11.186;2023-07-13T00:14:24;5.63;;;2.78;;
75096;SDS011;63684;47.964;11.186;2023-07-13T00:16:50;4.78;;;2.70;;
75096;SDS011;63684;47.964;11.186;2023-07-13T00:19:15;4.15;;;2.80;;
75096;SDS011;63684;47.964;11.186;2023-07-13T00:21:41;9.55;;;2.60;;
75096;SDS011;63684;47.964;11.186;2023-07-13T00:24:07;3.35;;;2.28;;
75096;SDS011;63684;47.964;11.186;2023-07-13T00:26:39;2.97;;;2.33;;
75096;SDS011;63684;47.964;11.186;2023-07-13T00:29:05;5.88;;;2.60;;
75096;SDS011;63684;47.964;11.186;2023-07-13T00:31:33;3.90;;;2.10;;
75096;SDS011;63684;47.964;11.186;2023-07-13T00:33:59;2.97;;;1.98;;
75096;SDS011;63684;47.964;11.186;2023-07-13T00:36:25;4.60;;;2.00;;
75096;SDS011;63684;47.964;11.186;2023-07-13T00:38:51;2.72;;;2.00;;
75096;SDS011;63684;47.964;11.186;2023-07-13T00:41:18;2.78;;;1.80;;
75096;SDS011;63684;47.964;11.186;2023-07-13T00:43:43;2.55;;;1.90;;
75096;SDS011;63684;47.964;11.186;2023-07-13T00:46:20;4.35;;;2.03;;
75096;SDS011;63684;47.964;11.186;2023-07-13T00:48:46;6.65;;;1.80;;
75096;SDS011;63684;47.964;11.186;2023-07-13T00:51:14;5.97;;;2.17;;
75096;SDS011;63684;47.964;11.186;2023-07-13T00:53:41;4.07;;;1.70;;
75096;SDS011;63684;47.964;11.186;2023-07-13T00:56:07;2.45;;;1.85;;
75096;SDS011;63684;47.964;11.186;2023-07-13T00:58:32;3.17;;;1.95;;
75096;SDS011;63684;47.964;11.186;2023-07-13T01:00:58;4.20;;;1.75;;
75096;SDS011;63684;47.964;11.186;2023-07-13T01:03:24;2.28;;;1.80;;
75096;SDS011;63684;47.964;11.186;2023-07-13T01:05:50;9.40;;;2.00;;
75096;SDS011;63684;47.964;11.186;2023-07-13T01:08:16;1.90;;;1.77;;
75096;SDS011;63684;47.964;11.186;2023-07-13T01:10:50;5.22;;;1.92;;
75096;SDS011;63684;47.964;11.186;2023-07-13T01:13:17;3.67;;;2.08;;
75096;SDS011;63684;47.964;11.186;2023-07-13T01:15:43;3.95;;;2.05;;
75096;SDS011;63684;47.964;11.186;2023-07-13T01:18:12;2.78;;;2.20;;
75096;SDS011;63684;47.964;11.186;2023-07-13T01:20:40;2.15;;;1.90;;
75096;SDS011;63684;47.964;11.186;2023-07-13T01:23:09;5.30;;;2.33;;
75096;SDS011;63684;47.964;11.186;2023-07-13T01:25:36;2.53;;;1.95;;
75096;SDS011;63684;47.964;11.186;2023-07-13T01:28:03;2.58;;;2.05;;
75096;SDS011;63684;47.964;11.186;2023-07-13T01:30:34;3.92;;;2.22;;
75096;SDS011;63684;47.964;11.186;2023-07-13T01:33:05;3.75;;;2.03;;
75096;SDS011;63684;47.964;11.186;2023-07-13T01:35:34;5.43;;;2.47;;
75096;SDS011;63684;47.964;11.186;2023-07-13T01:38:00;3.33;;;2.20;;
75096;SDS011;63684;47.964;11.186;2023-07-13T01:40:27;5.45;;;2.58;;
75096;SDS011;63684;47.964;11.186;2023-07-13T01:42:52;5.40;;;2.80;;
75096;SDS011;63684;47.964;11.186;2023-07-13T01:45:19;7.30;;;2.25;;
75096;SDS011;63684;47.964;11.186;2023-07-13T01:47:45;4.25;;;2.42;;
75096;SDS011;63684;47.964;11.186;2023-07-13T01:50:11;3.65;;;2.50;;
75096;SDS011;63684;47.964;11.186;2023-07-13T01:52:37;4.75;;;2.50;;
75096;SDS011;63684;47.964;11.186;2023-07-13T01:55:02;3.67;;;2.20;;
75096;SDS011;63684;47.964;11.186;2023-07-13T01:57:28;3.42;;;2.40;;
75096;SDS011;63684;47.964;11.186;2023-07-13T01:59:53;3.83;;;2.42;;
75096;SDS011;63684;47.964;11.186;2023-07-13T02:02:19;4.03;;;2.80;;
75096;SDS011;63684;47.964;11.186;2023-07-13T02:04:44;6.65;;;2.70;;
75096;SDS011;63684;47.964;11.186;2023-07-13T02:07:10;4.07;;;2.65;;
75096;SDS011;63684;47.964;11.186;2023-07-13T02:09:35;2.92;;;2.70;;
75096;SDS011;63684;47.964;11.186;2023-07-13T02:12:01;4.40;;;2.33;;
75096;SDS011;63684;47.964;11.186;2023-07-13T02:14:32;2.92;;;2.67;;
75096;SDS011;63684;47.964;11.186;2023-07-13T02:16:57;4.65;;;2.80;;
75096;SDS011;63684;47.964;11.186;2023-07-13T02:19:23;5.70;;;2.75;;
75096;SDS011;63684;47.964;11.186;2023-07-13T02:21:49;5.13;;;3.05;;
75096;SDS011;63684;47.964;11.186;2023-07-13T02:24:15;3.08;;;2.65;;
75096;SDS011;63684;47.964;11.186;2023-07-13T02:26:43;4.60;;;3.20;;
75096;SDS011;63684;47.964;11.186;2023-07-13T02:29:09;3.83;;;2.90;;
75096;SDS011;63684;47.964;11.186;2023-07-13T02:31:35;3.95;;;3.08;;
75096;SDS011;63684;47.964;11.186;2023-07-13T02:34:01;3.70;;;2.90;;
75096;SDS011;63684;47.964;11.186;2023-07-13T02:36:28;6.05;;;2.80;;
75096;SDS011;63684;47.964;11.186;2023-07-13T02:38:53;3.45;;;2.70;;
75096;SDS011;63684;47.964;11.186;2023-07-13T02:41:19;4.00;;;2.80;;
75096;SDS011;63684;47.964;11.186;2023-07-13T02:43:45;4.93;;;2.85;;
75096;SDS011;63684;47.964;11.186;2023-07-13T02:46:10;5.57;;;2.92;;
75096;SDS011;63684;47.964;11.186;2023-07-13T02:48:36;4.35;;;2.53;;
75096;SDS011;63684;47.964;11.186;2023-07-13T02:51:03;3.75;;;2.80;;
75096;SDS011;63684;47.964;11.186;2023-07-13T02:53:28;3.83;;;2.33;;
75096;SDS011;63684;47.964;11.186;2023-07-13T02:55:54;4.63;;;2.53;;
75096;SDS011;63684;47.964;11.186;2023-07-13T02:58:20;4.00;;;2.47;;
75096;SDS011;63684;47.964;11.186;2023-07-13T03:00:46;2.55;;;2.35;;
75096;SDS011;63684;47.964;11.186;2023-07-13T03:03:12;5.05;;;2.75;;
75096;SDS011;63684;47.964;11.186;2023-07-13T03:05:39;2.22;;;1.65;;
75096;SDS011;63684;47.964;11.186;2023-07-13T03:08:07;3.97;;;1.60;;
75096;SDS011;63684;47.964;11.186;2023-07-13T03:10:33;3.42;;;1.60;;
75096;SDS011;63684;47.964;11.186;2023-07-13T03:12:59;3.72;;;1.60;;
75096;SDS011;63684;47.964;11.186;2023-07-13T03:15:26;3.67;;;1.80;;
75096;SDS011;63684;47.964;11.186;2023-07-13T03:17:54;1.63;;;1.52;;
75096;SDS011;63684;47.964;11.186;2023-07-13T03:20:19;1.73;;;1.63;;
75096;SDS011;63684;47.964;11.186;2023-07-13T03:22:45;2.53;;;1.70;;
75096;SDS011;63684;47.964;11.186;2023-07-13T03:25:11;2.67;;;1.52;;
75096;SDS011;63684;47.964;11.186;2023-07-13T03:27:37;2.90;;;1.58;;
75096;SDS011;63684;47.964;11.186;2023-07-13T03:30:05;1.75;;;1.27;;
75096;SDS011;63684;47.964;11.186;2023-07-13T03:32:32;3.00;;;1.33;;
75096;SDS011;63684;47.964;11.186;2023-07-13T03:34:57;2.35;;;1.85;;
75096;SDS011;63684;47.964;11.186;2023-07-13T03:37:23;2.22;;;1.33;;
75096;SDS011;63684;47.964;11.186;2023-07-13T03:39:50;1.58;;;1.45;;
75096;SDS011;63684;47.964;11.186;2023-07-13T03:42:16;2.28;;;1.60;;
75096;SDS011;63684;47.964;11.186;2023-07-13T03:44:42;2.90;;;1.85;;
75096;SDS011;63684;47.964;11.186;2023-07-13T03:47:15;2.88;;;1.83;;
75096;SDS011;63684;47.964;11.186;2023-07-13T03:49:42;4.93;;;1.80;;
75096;SDS011;63684;47.964;11.186;2023-07-13T03:52:08;2.78;;;2.00;;
75096;SDS011;63684;47.964;11.186;2023-07-13T03:54:33;2.63;;;1.92;;
75096;SDS011;63684;47.964;11.186;2023-07-13T03:57:00;3.10;;;1.95;;
75096;SDS011;63684;47.964;11.186;2023-07-13T03:59:27;5.10;;;2.60;;
75096;SDS011;63684;47.964;11.186;2023-07-13T04:01:53;5.15;;;2.08;;
75096;SDS011;63684;47.964;11.186;2023-07-13T04:04:18;4.65;;;2.47;;
75096;SDS011;63684;47.964;11.186;2023-07-13T04:06:44;4.33;;;2.73;;
75096;SDS011;63684;47.964;11.186;2023-07-13T04:09:11;4.13;;;2.50;;
75096;SDS011;63684;47.964;11.186;2023-07-13T04:11:36;3.53;;;2.45;;
75096;SDS011;63684;47.964;11.186;2023-07-13T04:14:02;4.67;;;2.60;;
75096;SDS011;63684;47.964;11.186;2023-07-13T04:16:27;5.07;;;2.30;;
75096;SDS011;63684;47.964;11.186;2023-07-13T04:18:53;4.22;;;2.45;;
75096;SDS011;63684;47.964;11.186;2023-07-13T04:21:22;4.13;;;2.20;;
75096;SDS011;63684;47.964;11.186;2023-07-13T04:23:47;2.88;;;2.03;;
75096;SDS011;63684;47.964;11.186;2023-07-13T04:26:13;3.33;;;2.27;;
75096;SDS011;63684;47.964;11.186;2023-07-13T04:28:38;2.67;;;2.30;;
75096;SDS011;63684;47.964;11.186;2023-07-13T04:31:04;4.07;;;2.05;;
75096;SDS011;63684;47.964;11.186;2023-07-13T04:33:29;2.57;;;2.00;;
75096;SDS011;63684;47.964;11.186;2023-07-13T04:35:55;3.67;;;2.10;;
75096;SDS011;63684;47.964;11.186;2023-07-13T04:38:28;2.88;;;1.95;;
75096;SDS011;63684;47.964;11.186;2023-07-13T04:40:58;3.97;;;2.40;;
75096;SDS011;63684;47.964;11.186;2023-07-13T04:43:26;6.97;;;2.33;;
75096;SDS011;63684;47.964;11.186;2023-07-13T04:45:52;2.83;;;2.20;;
75096;SDS011;63684;47.964;11.186;2023-07-13T04:48:18;2.00;;;1.90;;
75096;SDS011;63684;47.964;11.186;2023-07-13T04:50:44;2.55;;;1.98;;
75096;SDS011;63684;47.964;11.186;2023-07-13T04:53:10;3.40;;;2.00;;
75096;SDS011;63684;47.964;11.186;2023-07-13T04:55:36;5.60;;;2.42;;
75096;SDS011;63684;47.964;11.186;2023-07-13T04:58:02;2.42;;;2.22;;
75096;SDS011;63684;47.964;11.186;2023-07-13T05:00:28;2.13;;;1.92;;
75096;SDS011;63684;47.964;11.186;2023-07-13T05:02:55;5.00;;;2.50;;
75096;SDS011;63684;47.964;11.186;2023-07-13T05:05:21;3.40;;;2.08;;
75096;SDS011;63684;47.964;11.186;2023-07-13T05:07:46;2.90;;;2.58;;
75096;SDS011;63684;47.964;11.186;2023-07-13T05:10:13;4.35;;;2.97;;
75096;SDS011;63684;47.964;11.186;2023-07-13T05:12:38;3.30;;;2.78;;
75096;SDS011;63684;47.964;11.186;2023-07-13T05:15:04;6.25;;;2.70;;
75096;SDS011;63684;47.964;11.186;2023-07-13T05:17:29;8.32;;;2.63;;
75096;SDS011;63684;47.964;11.186;2023-07-13T05:19:55;3.08;;;2.10;;
75096;SDS011;63684;47.964;11.186;2023-07-13T05:22:20;8.43;;;2.90;;
75096;SDS011;63684;47.964;11.186;2023-07-13T05:24:46;4.53;;;2.58;;
75096;SDS011;63684;47.964;11.186;2023-07-13T05:27:11;6.22;;;2.85;;
75096;SDS011;63684;47.964;11.186;2023-07-13T05:29:37;3.85;;;2.40;;
75096;SDS011;63684;47.964;11.186;2023-07-13T05:32:02;5.22;;;2.58;;
75096;SDS011;63684;47.964;11.186;2023-07-13T05:34:28;3.72;;;2.17;;
75096;SDS011;63684;47.964;11.186;2023-07-13T05:36:54;3.45;;;2.22;;
75096;SDS011;63684;47.964;11.186;2023-07-13T05:39:19;4.00;;;2.28;;
75096;SDS011;63684;47.964;11.186;2023-07-13T05:41:45;3.15;;;2.50;;
75096;SDS011;63684;47.964;11.186;2023-07-13T05:44:10;3.22;;;2.47;;
75096;SDS011;63684;47.964;11.186;2023-07-13T05:46:36;2.90;;;2.40;;
75096;SDS011;63684;47.964;11.186;2023-07-13T05:49:01;4.47;;;2.42;;
75096;SDS011;63684;47.964;11.186;2023-07-13T05:51:26;4.97;;;3.20;;
75096;SDS011;63684;47.964;11.186;2023-07-13T05:53:52;3.20;;;2.08;;
75096;SDS011;63684;47.964;11.186;2023-07-13T05:56:17;3.53;;;2.35;;
75096;SDS011;63684;47.964;11.186;2023-07-13T05:58:43;3.15;;;2.40;;
75096;SDS011;63684;47.964;11.186;2023-07-13T06:01:10;5.55;;;2.60;;
75096;SDS011;63684;47.964;11.186;2023-07-13T06:03:37;3.78;;;2.60;;
75096;SDS011;63684;47.964;11.186;2023-07-13T06:06:04;3.50;;;2.42;;
75096;SDS011;63684;47.964;11.186;2023-07-13T06:08:30;2.83;;;2.63;;
75096;SDS011;63684;47.964;11.186;2023-07-13T06:11:01;5.72;;;3.10;;
75096;SDS011;63684;47.964;11.186;2023-07-13T06:13:28;4.70;;;2.90;;
75096;SDS011;63684;47.964;11.186;2023-07-13T06:15:53;5.88;;;2.50;;
75096;SDS011;63684;47.964;11.186;2023-07-13T06:18:19;4.70;;;3.47;;
75096;SDS011;63684;47.964;11.186;2023-07-13T06:20:44;3.15;;;2.50;;
75096;SDS011;63684;47.964;11.186;2023-07-13T06:23:10;4.50;;;2.88;;
75096;SDS011;63684;47.964;11.186;2023-07-13T06:25:35;9.90;;;3.20;;
75096;SDS011;63684;47.964;11.186;2023-07-13T06:28:00;5.28;;;3.35;;
75096;SDS011;63684;47.964;11.186;2023-07-13T06:30:26;4.38;;;3.08;;
75096;SDS011;63684;47.964;11.186;2023-07-13T06:32:52;3.38;;;2.50;;
75096;SDS011;63684;47.964;11.186;2023-07-13T06:35:17;3.58;;;2.95;;
75096;SDS011;63684;47.964;11.186;2023-07-13T06:37:43;5.63;;;3.10;;
75096;SDS011;63684;47.964;11.186;2023-07-13T06:40:08;4.07;;;3.00;;
75096;SDS011;63684;47.964;11.186;2023-07-13T06:42:34;4.03;;;2.60;;
75096;SDS011;63684;47.964;11.186;2023-07-13T06:45:00;6.95;;;2.70;;
75096;SDS011;63684;47.964;11.186;2023-07-13T06:47:25;6.03;;;3.17;;
75096;SDS011;63684;47.964;11.186;2023-07-13T06:49:51;5.15;;;2.40;;
75096;SDS011;63684;47.964;11.186;2023-07-13T06:52:17;3.08;;;1.77;;
75096;SDS011;63684;47.964;11.186;2023-07-13T06:54:42;5.88;;;2.38;;
75096;SDS011;63684;47.964;11.186;2023-07-13T06:57:08;7.32;;;2.17;;
75096;SDS011;63684;47.964;11.186;2023-07-13T06:59:33;6.25;;;2.00;;
75096;SDS011;63684;47.964;11.186;2023-07-13T07:01:58;4.13;;;2.30;;
75096;SDS011;63684;47.964;11.186;2023-07-13T07:04:24;4.35;;;2.17;;
75096;SDS011;63684;47.964;11.186;2023-07-13T07:06:49;6.50;;;2.40;;
75096;SDS011;63684;47.964;11.186;2023-07-13T07:09:15;3.63;;;2.00;;
75096;SDS011;63684;47.964;11.186;2023-07-13T07:11:41;4.88;;;2.45;;
75096;SDS011;63684;47.964;11.186;2023-07-13T07:14:07;3.85;;;2.05;;
75096;SDS011;63684;47.964;11.186;2023-07-13T07:16:33;4.78;;;2.38;;
75096;SDS011;63684;47.964;11.186;2023-07-13T07:18:58;4.47;;;2.25;;
75096;SDS011;63684;47.964;11.186;2023-07-13T07:21:24;5.50;;;1.80;;
75096;SDS011;63684;47.964;11.186;2023-07-13T07:23:49;6.18;;;1.98;;
75096;SDS011;63684;47.964;11.186;2023-07-13T07:26:15;6.15;;;2.00;;
75096;SDS011;63684;47.964;11.186;2023-07-13T07:28:40;3.22;;;1.88;;
75096;SDS011;63684;47.964;11.186;2023-07-13T07:31:05;4.40;;;1.83;;
75096;SDS011;63684;47.964;11.186;2023-07-13T07:33:32;6.90;;;1.92;;
75096;SDS011;63684;47.964;11.186;2023-07-13T07:35:59;5.88;;;2.20;;
75096;SDS011;63684;47.964;11.186;2023-07-13T07:38:24;4.85;;;1.90;;
75096;SDS011;63684;47.964;11.186;2023-07-13T07:40:49;5.05;;;2.20;;
75096;SDS011;63684;47.964;11.186;2023-07-13T07:43:15;2.20;;;1.63;;
75096;SDS011;63684;47.964;11.186;2023-07-13T07:45:40;7.55;;;1.80;;
75096;SDS011;63684;47.964;11.186;2023-07-13T07:48:06;4.43;;;1.85;;
75096;SDS011;63684;47.964;11.186;2023-07-13T07:50:32;7.70;;;2.30;;
75096;SDS011;63684;47.964;11.186;2023-07-13T07:52:57;5.15;;;1.67;;
75096;SDS011;63684;47.964;11.186;2023-07-13T07:55:23;7.18;;;1.92;;
75096;SDS011;63684;47.964;11.186;2023-07-13T07:57:51;4.75;;;1.63;;
75096;SDS011;63684;47.964;11.186;2023-07-13T08:00:17;4.43;;;1.50;;
75096;SDS011;63684;47.964;11.186;2023-07-13T08:02:43;5.25;;;2.10;;
75096;SDS011;63684;47.964;11.186;2023-07-13T08:05:08;3.08;;;1.55;;
75096;SDS011;63684;47.964;11.186;2023-07-13T08:07:34;5.05;;;1.80;;
75096;SDS011;63684;47.964;11.186;2023-07-13T08:10:00;2.92;;;1.52;;
75096;SDS011;63684;47.964;11.186;2023-07-13T08:12:26;3.15;;;1.85;;
75096;SDS011;63684;47.964;11.186;2023-07-13T08:14:51;5.63;;;1.90;;
75096;SDS011;63684;47.964;11.186;2023-07-13T08:17:22;2.45;;;1.58;;
75096;SDS011;63684;47.964;11.186;2023-07-13T08:19:48;6.28;;;1.80;;
75096;SDS011;63684;47.964;11.186;2023-07-13T08:22:13;4.05;;;1.98;;
75096;SDS011;63684;47.964;11.186;2023-07-13T08:24:39;3.05;;;1.77;;
75096;SDS011;63684;47.964;11.186;2023-07-13T08:27:04;2.55;;;1.80;;
75096;SDS011;63684;47.964;11.186;2023-07-13T08:29:30;2.53;;;1.70;;
75096;SDS011;63684;47.964;11.186;2023-07-13T08:31:58;5.55;;;2.17;;
75096;SDS011;63684;47.964;11.186;2023-07-13T08:34:23;2.60;;;1.70;;
75096;SDS011;63684;47.964;11.186;2023-07-13T08:36:48;2.67;;;1.65;;
75096;SDS011;63684;47.964;11.186;2023-07-13T08:39:14;4.72;;;1.40;;
75096;SDS011;63684;47.964;11.186;2023-07-13T08:41:39;4.15;;;1.85;;
75096;SDS011;63684;47.964;11.186;2023-07-13T08:44:05;4.22;;;1.75;;
75096;SDS011;63684;47.964;11.186;2023-07-13T08:46:44;5.53;;;1.70;;
75096;SDS011;63684;47.964;11.186;2023-07-13T08:49:15;4.07;;;1.65;;
75096;SDS011;63684;47.964;11.186;2023-07-13T08:51:42;5.05;;;1.50;;
75096;SDS011;63684;47.964;11.186;2023-07-13T08:54:36;3.63;;;1.50;;
75096;SDS011;63684;47.964;11.186;2023-07-13T08:57:12;3.55;;;1.38;;
75096;SDS011;63684;47.964;11.186;2023-07-13T08:59:39;4.03;;;1.80;;
75096;SDS011;63684;47.964;11.186;2023-07-13T09:02:23;4.72;;;2.00;;
75096;SDS011;63684;47.964;11.186;2023-07-13T09:05:13;2.90;;;1.70;;
75096;SDS011;63684;47.964;11.186;2023-07-13T09:10:46;3.45;;;1.42;;
75096;SDS011;63684;47.964;11.186;2023-07-13T09:13:24;6.90;;;1.77;;
75096;SDS011;63684;47.964;11.186;2023-07-13T09:15:54;3.55;;;1.58;;
75096;SDS011;63684;47.964;11.186;2023-07-13T09:18:26;3.08;;;1.60;;
75096;SDS011;63684;47.964;11.186;2023-07-13T09:20:54;6.80;;;1.50;;
75096;SDS011;63684;47.964;11.186;2023-07-13T09:23:23;3.33;;;1.85;;
75096;SDS011;63684;47.964;11.186;2023-07-13T09:25:53;4.60;;;1.58;;
75096;SDS011;63684;47.964;11.186;2023-07-13T09:28:24;8.43;;;2.00;;
75096;SDS011;63684;47.964;11.186;2023-07-13T09:33:21;2.92;;;1.55;;
75096;SDS011;63684;47.964;11.186;2023-07-13T09:35:47;2.55;;;1.55;;
75096;SDS011;63684;47.964;11.186;2023-07-13T09:38:14;3.03;;;1.80;;
75096;SDS011;63684;47.964;11.186;2023-07-13T09:40:56;6.68;;;1.67;;
75096;SDS011;63684;47.964;11.186;2023-07-13T09:43:24;4.13;;;1.75;;
75096;SDS011;63684;47.964;11.186;2023-07-13T09:45:49;2.90;;;1.73;;
75096;SDS011;63684;47.964;11.186;2023-07-13T09:48:15;3.35;;;1.65;;
75096;SDS011;63684;47.964;11.186;2023-07-13T09:50:42;5.88;;;1.50;;
75096;SDS011;63684;47.964;11.186;2023-07-13T09:53:11;3.58;;;1.80;;
75096;SDS011;63684;47.964;11.186;2023-07-13T09:55:39;5.10;;;1.33;;
75096;SDS011;63684;47.964;11.186;2023-07-13T09:58:10;1.92;;;1.60;;
75096;SDS011;63684;47.964;11.186;2023-07-13T10:00:36;2.25;;;1.60;;
75096;SDS011;63684;47.964;11.186;2023-07-13T10:03:09;3.65;;;1.80;;
75096;SDS011;63684;47.964;11.186;2023-07-13T10:05:43;3.15;;;1.75;;
75096;SDS011;63684;47.964;11.186;2023-07-13T10:11:18;5.88;;;1.40;;
75096;SDS011;63684;47.964;11.186;2023-07-13T10:13:46;1.98;;;1.05;;
75096;SDS011;63684;47.964;11.186;2023-07-13T10:16:15;5.55;;;1.65;;
75096;SDS011;63684;47.964;11.186;2023-07-13T10:18:43;4.03;;;1.38;;
75096;SDS011;63684;47.964;11.186;2023-07-13T10:21:15;6.57;;;1.23;;
75096;SDS011;63684;47.964;11.186;2023-07-13T10:23:43;3.42;;;1.50;;
75096;SDS011;63684;47.964;11.186;2023-07-13T10:26:13;2.88;;;1.20;;
75096;SDS011;63684;47.964;11.186;2023-07-13T10:28:45;4.85;;;1.70;;
75096;SDS011;63684;47.964;11.186;2023-07-13T10:31:13;3.10;;;1.50;;
75096;SDS011;63684;47.964;11.186;2023-07-13T10:33:39;3.83;;;1.45;;
75096;SDS011;63684;47.964;11.186;2023-07-13T10:36:28;7.35;;;1.23;;
75096;SDS011;63684;47.964;11.186;2023-07-13T10:39:04;4.60;;;1.20;;
75096;SDS011;63684;47.964;11.186;2023-07-13T10:41:32;4.00;;;1.30;;
75096;SDS011;63684;47.964;11.186;2023-07-13T10:44:00;3.47;;;1.30;;
75096;SDS011;63684;47.964;11.186;2023-07-13T10:46:26;2.45;;;1.20;;
75096;SDS011;63684;47.964;11.186;2023-07-13T10:48:54;2.38;;;1.20;;
75096;SDS011;63684;47.964;11.186;2023-07-13T10:51:21;4.53;;;1.50;;
75096;SDS011;63684;47.964;11.186;2023-07-13T10:53:47;2.25;;;1.35;;
75096;SDS011;63684;47.964;11.186;2023-07-13T10:56:33;3.95;;;1.60;;
75096;SDS011;63684;47.964;11.186;2023-07-13T10:59:10;6.00;;;1.40;;
75096;SDS011;63684;47.964;11.186;2023-07-13T11:01:48;3.50;;;1.40;;
75096;SDS011;63684;47.964;11.186;2023-07-13T11:04:25;4.95;;;1.10;;
75096;SDS011;63684;47.964;11.186;2023-07-13T11:06:56;7.13;;;1.50;;
75096;SDS011;63684;47.964;11.186;2023-07-13T11:12:00;2.28;;;1.00;;
75096;SDS011;63684;47.964;11.186;2023-07-13T11:14:38;4.93;;;1.33;;
75096;SDS011;63684;47.964;11.186;2023-07-13T11:19:54;4.43;;;1.27;;
75096;SDS011;63684;47.964;11.186;2023-07-13T11:25:31;3.08;;;1.15;;
75096;SDS011;63684;47.964;11.186;2023-07-13T11:30:46;2.97;;;1.08;;
75096;SDS011;63684;47.964;11.186;2023-07-13T11:33:25;2.80;;;1.00;;
75096;SDS011;63684;47.964;11.186;2023-07-13T11:38:29;5.30;;;1.58;;
75096;SDS011;63684;47.964;11.186;2023-07-13T11:41:04;2.65;;;1.10;;
75096;SDS011;63684;47.964;11.186;2023-07-13T11:43:53;3.20;;;1.10;;
75096;SDS011;63684;47.964;11.186;2023-07-13T11:46:23;8.98;;;1.67;;
75096;SDS011;63684;47.964;11.186;2023-07-13T11:48:51;5.85;;;1.10;;
75096;SDS011;63684;47.964;11.186;2023-07-13T11:51:30;3.10;;;1.23;;
75096;SDS011;63684;47.964;11.186;2023-07-13T11:53:57;2.30;;;1.10;;
75096;SDS011;63684;47.964;11.186;2023-07-13T11:56:30;5.57;;;1.10;;
75096;SDS011;63684;47.964;11.186;2023-07-13T11:58:57;7.47;;;1.45;;
75096;SDS011;63684;47.964;11.186;2023-07-13T12:01:26;2.25;;;0.95;;
75096;SDS011;63684;47.964;11.186;2023-07-13T12:03:57;5.15;;;1.33;;
75096;SDS011;63684;47.964;11.186;2023-07-13T12:06:28;3.22;;;1.23;;
75096;SDS011;63684;47.964;11.186;2023-07-13T12:08:57;6.10;;;1.33;;
75096;SDS011;63684;47.964;11.186;2023-07-13T12:11:24;3.92;;;1.17;;
75096;SDS011;63684;47.964;11.186;2023-07-13T12:13:49;5.97;;;1.48;;
75096;SDS011;63684;47.964;11.186;2023-07-13T12:16:16;4.65;;;1.88;;
75096;SDS011;63684;47.964;11.186;2023-07-13T12:18:42;1.73;;;0.95;;
75096;SDS011;63684;47.964;11.186;2023-07-13T12:21:12;3.20;;;1.35;;
75096;SDS011;63684;47.964;11.186;2023-07-13T12:23:39;3.20;;;1.40;;
75096;SDS011;63684;47.964;11.186;2023-07-13T12:26:05;3.78;;;1.70;;
75096;SDS011;63684;47.964;11.186;2023-07-13T12:28:33;2.97;;;1.63;;
75096;SDS011;63684;47.964;11.186;2023-07-13T12:31:02;4.70;;;1.65;;
75096;SDS011;63684;47.964;11.186;2023-07-13T12:33:30;4.63;;;1.63;;
75096;SDS011;63684;47.964;11.186;2023-07-13T12:35:57;3.63;;;1.60;;
75096;SDS011;63684;47.964;11.186;2023-07-13T12:38:30;1.92;;;1.50;;
75096;SDS011;63684;47.964;11.186;2023-07-13T12:40:55;4.35;;;1.52;;
75096;SDS011;63684;47.964;11.186;2023-07-13T12:43:21;3.53;;;1.48;;
75096;SDS011;63684;47.964;11.186;2023-07-13T12:48:23;3.17;;;1.35;;
75096;SDS011;63684;47.964;11.186;2023-07-13T12:50:50;2.92;;;1.30;;
75096;SDS011;63684;47.964;11.186;2023-07-13T12:53:16;2.60;;;1.42;;
75096;SDS011;63684;47.964;11.186;2023-07-13T12:55:52;2.97;;;1.90;;
75096;SDS011;63684;47.964;11.186;2023-07-13T12:58:25;6.07;;;1.58;;
75096;SDS011;63684;47.964;11.186;2023-07-13T13:00:54;3.20;;;1.73;;
75096;SDS011;63684;47.964;11.186;2023-07-13T13:06:17;6.75;;;2.13;;
75096;SDS011;63684;47.964;11.186;2023-07-13T13:08:52;5.47;;;1.75;;
75096;SDS011;63684;47.964;11.186;2023-07-13T13:11:19;4.78;;;1.70;;
75096;SDS011;63684;47.964;11.186;2023-07-13T13:13:46;4.20;;;1.67;;
75096;SDS011;63684;47.964;11.186;2023-07-13T13:16:20;4.55;;;1.92;;
75096;SDS011;63684;47.964;11.186;2023-07-13T13:18:52;4.40;;;1.60;;
75096;SDS011;63684;47.964;11.186;2023-07-13T13:21:19;3.33;;;1.63;;
75096;SDS011;63684;47.964;11.186;2023-07-13T13:23:46;2.88;;;1.38;;
75096;SDS011;63684;47.964;11.186;2023-07-13T13:26:12;6.65;;;2.03;;
75096;SDS011;63684;47.964;11.186;2023-07-13T13:28:40;5.05;;;1.85;;
75096;SDS011;63684;47.964;11.186;2023-07-13T13:31:07;6.88;;;1.80;;
75096;SDS011;63684;47.964;11.186;2023-07-13T13:33:37;3.67;;;1.58;;
75096;SDS011;63684;47.964;11.186;2023-07-13T13:36:09;2.58;;;1.27;;
75096;SDS011;63684;47.964;11.186;2023-07-13T13:38:47;2.75;;;1.40;;
75096;SDS011;63684;47.964;11.186;2023-07-13T13:41:13;5.53;;;1.73;;
75096;SDS011;63684;47.964;11.186;2023-07-13T13:43:40;3.97;;;1.80;;
75096;SDS011;63684;47.964;11.186;2023-07-13T13:46:16;3.38;;;1.50;;
75096;SDS011;63684;47.964;11.186;2023-07-13T13:48:43;3.40;;;1.40;;
75096;SDS011;63684;47.964;11.186;2023-07-13T13:51:14;5.05;;;1.80;;
75096;SDS011;63684;47.964;11.186;2023-07-13T13:53:44;7.38;;;1.92;;
75096;SDS011;63684;47.964;11.186;2023-07-13T13:56:10;3.75;;;1.35;;
75096;SDS011;63684;47.964;11.186;2023-07-13T13:58:36;3.15;;;1.50;;
75096;SDS011;63684;47.964;11.186;2023-07-13T14:01:02;3.70;;;1.50;;
75096;SDS011;63684;47.964;11.186;2023-07-13T14:03:27;4.25;;;1.58;;
75096;SDS011;63684;47.964;11.186;2023-07-13T14:05:53;5.15;;;1.63;;
75096;SDS011;63684;47.964;11.186;2023-07-13T14:08:19;3.53;;;1.60;;
75096;SDS011;63684;47.964;11.186;2023-07-13T14:10:53;6.35;;;1.42;;
75096;SDS011;63684;47.964;11.186;2023-07-13T14:13:24;4.68;;;2.00;;
75096;SDS011;63684;47.964;11.186;2023-07-13T14:15:52;2.75;;;1.40;;
75096;SDS011;63684;47.964;11.186;2023-07-13T14:18:18;3.30;;;1.77;;
75096;SDS011;63684;47.964;11.186;2023-07-13T14:20:44;3.85;;;1.30;;
75096;SDS011;63684;47.964;11.186;2023-07-13T14:23:12;3.13;;;1.63;;
75096;SDS011;63684;47.964;11.186;2023-07-13T14:25:38;4.32;;;1.40;;
75096;SDS011;63684;47.964;11.186;2023-07-13T14:28:10;4.32;;;1.70;;
75096;SDS011;63684;47.964;11.186;2023-07-13T14:30:50;2.65;;;1.50;;
75096;SDS011;63684;47.964;11.186;2023-07-13T14:33:16;2.50;;;1.50;;
75096;SDS011;63684;47.964;11.186;2023-07-13T14:35:42;5.63;;;1.48;;
75096;SDS011;63684;47.964;11.186;2023-07-13T14:38:09;4.40;;;1.60;;
75096;SDS011;63684;47.964;11.186;2023-07-13T14:40:37;7.90;;;1.88;;
75096;SDS011;63684;47.964;11.186;2023-07-13T14:43:03;3.38;;;1.40;;
75096;SDS011;63684;47.964;11.186;2023-07-13T14:45:28;3.58;;;1.55;;
75096;SDS011;63684;47.964;11.186;2023-07-13T14:47:55;4.38;;;1.80;;
75096;SDS011;63684;47.964;11.186;2023-07-13T14:50:23;6.57;;;1.67;;
75096;SDS011;63684;47.964;11.186;2023-07-13T14:52:52;4.93;;;1.52;;
75096;SDS011;63684;47.964;11.186;2023-07-13T14:55:18;5.55;;;1.83;;
75096;SDS011;63684;47.964;11.186;2023-07-13T14:57:44;5.20;;;1.52;;
75096;SDS011;63684;47.964;11.186;2023-07-13T15:00:14;2.67;;;1.60;;
75096;SDS011;63684;47.964;11.186;2023-07-13T15:02:42;4.65;;;1.80;;
75096;SDS011;63684;47.964;11.186;2023-07-13T15:05:14;5.22;;;1.70;;